createdAt,value
2019-05-16T00:00:15.572Z,0
2019-05-16T00:01:19.164Z,0
2019-05-16T00:02:15.444Z,0
2019-05-16T00:03:15.185Z,0
2019-05-16T00:04:30.827Z,0
2019-05-16T00:05:30.375Z,0
2019-05-16T00:06:17.810Z,0
2019-05-16T00:07:15.342Z,0
2019-05-16T00:08:22.581Z,0
2019-05-16T00:09:15.226Z,0
2019-05-16T00:10:15.393Z,0
2019-05-16T00:11:17.779Z,0
2019-05-16T00:12:18.228Z,0
2019-05-16T00:13:15.453Z,0
2019-05-16T00:14:30.192Z,0
2019-05-16T00:16:15.219Z,0
2019-05-16T00:17:15.257Z,0
2019-05-16T00:18:17.793Z,0
2019-05-16T00:19:18.078Z,0
2019-05-16T00:20:18.839Z,0
2019-05-16T00:21:17.871Z,0
2019-05-16T00:22:18.023Z,0
2019-05-16T00:23:14.904Z,0
2019-05-16T00:24:30.150Z,0
2019-05-16T00:25:17.883Z,0
2019-05-16T00:26:30.622Z,0
2019-05-16T00:27:15.589Z,0
2019-05-16T00:28:30.538Z,0
2019-05-16T00:29:15.334Z,0
2019-05-16T00:30:18.086Z,0
2019-05-16T00:31:18.158Z,0
2019-05-16T00:32:15.803Z,0
2019-05-16T00:33:15.539Z,0
2019-05-16T00:34:31.443Z,0
2019-05-16T00:35:18.178Z,0
2019-05-16T00:36:18.677Z,0
2019-05-16T00:37:31.132Z,0
2019-05-16T00:38:18.031Z,0
2019-05-16T00:39:15.639Z,0
2019-05-16T00:40:15.643Z,0
2019-05-16T00:41:17.828Z,0
2019-05-16T00:42:31.120Z,0
2019-05-16T00:43:15.212Z,0
2019-05-16T00:45:20.840Z,0
2019-05-16T00:46:15.529Z,0
2019-05-16T00:48:18.137Z,0
2019-05-16T00:49:15.670Z,0
2019-05-16T00:50:18.036Z,0
2019-05-16T00:51:15.617Z,0
2019-05-16T00:52:15.375Z,0
2019-05-16T00:53:18.159Z,0
2019-05-16T00:54:15.658Z,0
2019-05-16T00:55:17.765Z,0
2019-05-16T00:56:15.443Z,0
2019-05-16T00:57:15.876Z,0
2019-05-16T00:58:30.911Z,0
2019-05-16T00:59:15.742Z,0
2019-05-16T01:00:18.023Z,0
2019-05-16T01:01:15.902Z,0
2019-05-16T01:02:31.256Z,0
2019-05-16T01:03:15.558Z,0
2019-05-16T01:05:21.433Z,0
2019-05-16T01:06:28.677Z,0
2019-05-16T01:07:18.518Z,0
2019-05-16T01:08:15.896Z,0
2019-05-16T01:09:15.983Z,0
2019-05-16T01:10:18.276Z,0
2019-05-16T01:11:18.090Z,0
2019-05-16T01:12:17.780Z,0
2019-05-16T01:13:15.730Z,0
2019-05-16T01:14:32.993Z,0
2019-05-16T01:15:18.180Z,0
2019-05-16T01:16:16.033Z,0
2019-05-16T01:17:18.110Z,0
2019-05-16T01:18:18.461Z,0
2019-05-16T01:19:16.089Z,0
2019-05-16T01:20:16.103Z,0
2019-05-16T01:22:30.803Z,0
2019-05-16T01:23:18.150Z,0
2019-05-16T01:24:18.616Z,0
2019-05-16T01:25:19.241Z,0
2019-05-16T01:26:18.364Z,0
2019-05-16T01:27:30.889Z,0
2019-05-16T01:28:17.959Z,0
2019-05-16T01:29:33.021Z,0
2019-05-16T01:30:18.421Z,0
2019-05-16T01:31:18.521Z,0
2019-05-16T01:32:18.816Z,0
2019-05-16T01:33:30.746Z,0
2019-05-16T01:34:18.091Z,0
2019-05-16T01:35:18.662Z,0
2019-05-16T01:36:22.178Z,0
2019-05-16T01:37:18.474Z,0
2019-05-16T01:38:18.026Z,0
2019-05-16T01:39:31.264Z,0
2019-05-16T01:40:18.612Z,0
2019-05-16T01:41:17.974Z,0
2019-05-16T01:42:31.160Z,0
2019-05-16T01:43:17.794Z,0
2019-05-16T01:44:18.292Z,0
2019-05-16T01:45:18.618Z,0
2019-05-16T01:46:17.997Z,0
2019-05-16T01:47:18.240Z,0
2019-05-16T01:48:21.730Z,0
2019-05-16T01:49:18.579Z,0
2019-05-16T01:50:18.033Z,0
2019-05-16T01:51:18.358Z,0
2019-05-16T01:52:17.791Z,0
2019-05-16T01:53:17.820Z,0
2019-05-16T01:54:17.960Z,0
2019-05-16T01:55:18.606Z,0
2019-05-16T01:56:17.904Z,0
2019-05-16T01:58:19.649Z,0
2019-05-16T01:59:18.104Z,0
2019-05-16T02:00:23.126Z,0
2019-05-16T02:02:18.347Z,0
2019-05-16T02:03:18.804Z,0
2019-05-16T02:04:20.803Z,0
2019-05-16T02:05:18.729Z,0
2019-05-16T02:06:18.314Z,0
2019-05-16T02:08:18.152Z,0
2019-05-16T02:09:21.278Z,0
2019-05-16T02:10:18.038Z,0
2019-05-16T02:11:31.648Z,0
2019-05-16T02:12:18.437Z,0
2019-05-16T02:13:17.920Z,0
2019-05-16T02:15:18.166Z,0
2019-05-16T02:16:18.674Z,0
2019-05-16T02:17:33.754Z,0
2019-05-16T02:18:18.360Z,0
2019-05-16T02:19:18.748Z,0
2019-05-16T02:20:17.947Z,0
2019-05-16T02:21:18.157Z,0
2019-05-16T02:22:31.843Z,0
2019-05-16T02:23:31.869Z,0
2019-05-16T02:24:18.238Z,0
2019-05-16T02:25:18.503Z,0
2019-05-16T02:26:19.088Z,0
2019-05-16T02:27:18.182Z,0
2019-05-16T02:28:17.034Z,0
2019-05-16T02:29:23.000Z,0
2019-05-16T02:30:23.945Z,0
2019-05-16T02:31:25.289Z,0
2019-05-16T02:32:33.873Z,0
2019-05-16T02:33:34.145Z,0
2019-05-16T02:34:21.701Z,0
2019-05-16T02:35:33.784Z,0
2019-05-16T02:36:21.254Z,0
2019-05-16T02:37:42.067Z,0
2019-05-16T02:38:21.074Z,0
2019-05-16T02:39:21.028Z,0
2019-05-16T02:40:20.982Z,0
2019-05-16T02:41:21.278Z,0
2019-05-16T02:42:21.167Z,0
2019-05-16T02:43:21.754Z,0
2019-05-16T02:44:20.781Z,0
2019-05-16T02:45:21.211Z,0
2019-05-16T02:46:21.717Z,0
2019-05-16T02:47:20.958Z,0
2019-05-16T02:48:21.245Z,0
2019-05-16T02:49:41.801Z,4
2019-05-16T02:50:22.226Z,4
2019-05-16T02:51:33.007Z,0
2019-05-16T02:52:34.230Z,4
2019-05-16T02:53:22.194Z,4
2019-05-16T02:54:21.475Z,8
2019-05-16T02:56:21.116Z,8
2019-05-16T02:57:21.148Z,8
2019-05-16T02:58:22.806Z,4
2019-05-16T02:59:20.566Z,8
2019-05-16T03:00:20.872Z,8
2019-05-16T03:01:21.337Z,12
2019-05-16T03:02:20.487Z,16
2019-05-16T03:03:21.254Z,16
2019-05-16T03:04:35.401Z,20
2019-05-16T03:05:20.767Z,20
2019-05-16T03:06:21.053Z,20
2019-05-16T03:07:51.792Z,20
2019-05-16T03:08:20.898Z,24
2019-05-16T03:09:20.775Z,24
2019-05-16T03:10:20.286Z,24
2019-05-16T03:12:20.989Z,36
2019-05-16T03:13:33.299Z,40
2019-05-16T03:15:21.463Z,48
2019-05-16T03:17:21.342Z,60
2019-05-16T03:18:21.371Z,72
2019-05-16T03:19:21.389Z,76
2019-05-16T03:20:20.993Z,84
2019-05-16T03:21:21.437Z,84
2019-05-16T03:22:21.853Z,96
2019-05-16T03:23:21.670Z,100
2019-05-16T03:24:20.549Z,100
2019-05-16T03:25:22.058Z,100
2019-05-16T03:26:20.951Z,104
2019-05-16T03:27:21.322Z,112
2019-05-16T03:28:33.141Z,124
2019-05-16T03:29:21.596Z,132
2019-05-16T03:31:33.591Z,184
2019-05-16T03:32:26.663Z,212
2019-05-16T03:34:46.122Z,216
2019-05-16T03:35:36.131Z,204
2019-05-16T03:36:36.587Z,212
2019-05-16T03:37:30.709Z,200
2019-05-16T03:38:25.906Z,184
2019-05-16T03:39:40.827Z,168
2019-05-16T03:40:41.315Z,168
2019-05-16T03:41:26.405Z,156
2019-05-16T03:42:44.092Z,152
2019-05-16T03:43:26.857Z,156
2019-05-16T03:44:31.455Z,148
2019-05-16T03:45:26.094Z,144
2019-05-16T03:46:26.417Z,132
2019-05-16T03:47:42.601Z,128
2019-05-16T03:48:31.237Z,140
2019-05-16T03:49:25.961Z,136
2019-05-16T03:50:26.656Z,128
2019-05-16T03:51:26.419Z,128
2019-05-16T03:52:30.768Z,132
2019-05-16T03:53:31.440Z,140
2019-05-16T03:54:31.140Z,148
2019-05-16T03:55:41.133Z,168
2019-05-16T03:56:26.772Z,192
2019-05-16T03:57:30.635Z,212
2019-05-16T03:58:30.947Z,232
2019-05-16T03:59:26.407Z,260
2019-05-16T04:00:31.578Z,272
2019-05-16T04:01:31.089Z,276
2019-05-16T04:02:26.416Z,292
2019-05-16T04:03:41.169Z,276
2019-05-16T04:04:42.624Z,264
2019-05-16T04:05:31.657Z,260
2019-05-16T04:06:26.943Z,236
2019-05-16T04:07:44.179Z,192
2019-05-16T04:08:33.561Z,208
2019-05-16T04:09:31.295Z,216
2019-05-16T04:10:40.891Z,220
2019-05-16T04:12:26.277Z,284
2019-05-16T04:13:31.061Z,292
2019-05-16T04:14:30.845Z,300
2019-05-16T04:15:26.307Z,360
2019-05-16T04:16:31.027Z,372
2019-05-16T04:17:31.392Z,420
2019-05-16T04:18:27.051Z,388
2019-05-16T04:19:41.507Z,368
2019-05-16T04:20:30.409Z,344
2019-05-16T04:21:32.228Z,336
2019-05-16T04:22:31.497Z,332
2019-05-16T04:23:42.501Z,312
2019-05-16T04:24:31.521Z,300
2019-05-16T04:25:41.219Z,276
2019-05-16T04:26:43.807Z,252
2019-05-16T04:27:30.844Z,256
2019-05-16T04:29:31.267Z,256
2019-05-16T04:30:31.218Z,264
2019-05-16T04:31:30.745Z,252
2019-05-16T04:32:31.263Z,248
2019-05-16T04:33:30.838Z,244
2019-05-16T04:34:30.839Z,248
2019-05-16T04:35:41.127Z,232
2019-05-16T04:36:28.445Z,220
2019-05-16T04:37:33.862Z,232
2019-05-16T04:38:51.154Z,228
2019-05-16T04:40:31.126Z,216
2019-05-16T04:41:31.114Z,220
2019-05-16T04:42:30.988Z,208
2019-05-16T04:43:43.837Z,232
2019-05-16T04:44:30.931Z,244
2019-05-16T04:45:31.562Z,240
2019-05-16T04:46:31.351Z,236
2019-05-16T04:48:30.981Z,272
2019-05-16T04:49:31.649Z,264
2019-05-16T04:50:41.892Z,272
2019-05-16T04:51:30.601Z,320
2019-05-16T04:52:43.504Z,324
2019-05-16T04:53:31.272Z,344
2019-05-16T04:54:30.729Z,360
2019-05-16T04:55:31.363Z,368
2019-05-16T04:56:30.800Z,396
2019-05-16T04:57:31.009Z,436
2019-05-16T04:58:33.895Z,468
2019-05-16T04:59:30.914Z,452
2019-05-16T05:00:31.590Z,456
2019-05-16T05:01:43.265Z,452
2019-05-16T05:02:30.897Z,488
2019-05-16T05:04:00.105Z,508
2019-05-16T05:04:30.535Z,488
2019-05-16T05:05:33.049Z,464
2019-05-16T05:06:31.007Z,420
2019-05-16T05:07:30.965Z,468
2019-05-16T05:08:30.687Z,504
2019-05-16T05:09:31.345Z,516
2019-05-16T05:10:31.005Z,556
2019-05-16T05:11:30.594Z,676
2019-05-16T05:12:31.153Z,708
2019-05-16T05:13:30.632Z,712
2019-05-16T05:14:30.704Z,816
2019-05-16T05:15:30.585Z,884
2019-05-16T05:16:27.540Z,876
2019-05-16T05:17:43.814Z,796
2019-05-16T05:18:43.310Z,812
2019-05-16T05:19:27.489Z,744
2019-05-16T05:20:30.370Z,712
2019-05-16T05:22:42.220Z,660
2019-05-16T05:23:30.099Z,664
2019-05-16T05:24:26.868Z,708
2019-05-16T05:25:27.629Z,628
2019-05-16T05:26:27.221Z,632
2019-05-16T05:27:26.942Z,692
2019-05-16T05:28:29.897Z,680
2019-05-16T05:29:27.257Z,672
2019-05-16T05:30:26.968Z,744
2019-05-16T05:31:54.157Z,756
2019-05-16T05:32:27.255Z,764
2019-05-16T05:33:30.181Z,788
2019-05-16T05:34:42.306Z,832
2019-05-16T05:35:30.932Z,912
2019-05-16T05:36:30.036Z,1012
2019-05-16T05:37:42.297Z,1044
2019-05-16T05:38:42.667Z,984
2019-05-16T05:40:42.909Z,1220
2019-05-16T05:41:27.074Z,1232
2019-05-16T05:42:27.165Z,1216
2019-05-16T05:43:30.484Z,1240
2019-05-16T05:44:42.620Z,1320
2019-05-16T05:45:27.342Z,1388
2019-05-16T05:46:27.638Z,1432
2019-05-16T05:47:27.282Z,1612
2019-05-16T05:48:43.674Z,1656
2019-05-16T05:49:30.004Z,1896
2019-05-16T05:50:27.385Z,1956
2019-05-16T05:51:29.981Z,1880
2019-05-16T05:52:30.247Z,2008
2019-05-16T05:53:30.010Z,1860
2019-05-16T05:55:27.334Z,1904
2019-05-16T05:56:26.988Z,1952
2019-05-16T05:57:29.988Z,2212
2019-05-16T05:58:30.641Z,2348
2019-05-16T05:59:27.424Z,2316
2019-05-16T06:01:27.807Z,2144
2019-05-16T06:02:27.358Z,2036
2019-05-16T06:03:32.675Z,1852
2019-05-16T06:04:27.000Z,1912
2019-05-16T06:05:27.477Z,1740
2019-05-16T06:06:30.377Z,1560
2019-05-16T06:07:29.848Z,1492
2019-05-16T06:08:27.508Z,1556
2019-05-16T06:09:56.404Z,1400
2019-05-16T06:10:42.958Z,1460
2019-05-16T06:11:27.498Z,1400
2019-05-16T06:12:30.261Z,1340
2019-05-16T06:14:30.585Z,1548
2019-05-16T06:15:27.579Z,1660
2019-05-16T06:16:27.723Z,1696
2019-05-16T06:17:27.398Z,1936
2019-05-16T06:18:27.525Z,1904
2019-05-16T06:19:29.610Z,1740
2019-05-16T06:20:42.535Z,1788
2019-05-16T06:21:27.715Z,1768
2019-05-16T06:22:42.819Z,1864
2019-05-16T06:23:30.773Z,2060
2019-05-16T06:25:56.368Z,2320
2019-05-16T06:26:27.791Z,2168
2019-05-16T06:27:30.187Z,2192
2019-05-16T06:28:30.127Z,2340
2019-05-16T06:29:27.698Z,2320
2019-05-16T06:30:30.364Z,2148
2019-05-16T06:31:31.253Z,2132
2019-05-16T06:32:27.382Z,2248
2019-05-16T06:33:30.322Z,2380
2019-05-16T06:34:30.096Z,2232
2019-05-16T06:36:27.725Z,2176
2019-05-16T06:37:27.810Z,2268
2019-05-16T06:38:29.849Z,2420
2019-05-16T06:39:45.128Z,2288
2019-05-16T06:40:29.426Z,2176
2019-05-16T06:41:27.552Z,2292
2019-05-16T06:42:29.873Z,2380
2019-05-16T06:43:30.039Z,2348
2019-05-16T06:44:27.354Z,2280
2019-05-16T06:45:42.677Z,2164
2019-05-16T06:46:27.675Z,2148
2019-05-16T06:47:30.563Z,2020
2019-05-16T06:48:43.305Z,1916
2019-05-16T06:49:27.691Z,1896
2019-05-16T06:50:29.714Z,1868
2019-05-16T06:52:29.977Z,2100
2019-05-16T06:53:29.886Z,2020
2019-05-16T06:54:29.850Z,2040
2019-05-16T06:55:29.610Z,2132
2019-05-16T06:56:27.575Z,2036
2019-05-16T06:57:43.372Z,1848
2019-05-16T06:58:30.186Z,1764
2019-05-16T06:59:29.736Z,1608
2019-05-16T07:00:30.098Z,1868
2019-05-16T07:01:42.879Z,1936
2019-05-16T07:02:40.788Z,1780
2019-05-16T07:03:30.641Z,1820
2019-05-16T07:04:30.309Z,1976
2019-05-16T07:05:29.923Z,2384
2019-05-16T07:07:05.482Z,3168
2019-05-16T07:07:28.020Z,3156
2019-05-16T07:08:30.702Z,2984
2019-05-16T07:09:29.998Z,2708
2019-05-16T07:10:27.821Z,2416
2019-05-16T07:11:30.473Z,2504
2019-05-16T07:12:31.334Z,2868
2019-05-16T07:13:45.401Z,2964
2019-05-16T07:15:29.774Z,2448
2019-05-16T07:16:29.919Z,2364
2019-05-16T07:17:30.505Z,2344
2019-05-16T07:18:43.284Z,2324
2019-05-16T07:19:30.099Z,2320
2019-05-16T07:20:30.146Z,2516
2019-05-16T07:21:42.928Z,2720
2019-05-16T07:22:31.028Z,2624
2019-05-16T07:25:30.068Z,2124
2019-05-16T07:26:43.099Z,1884
2019-05-16T07:27:30.831Z,1708
2019-05-16T07:28:30.011Z,1700
2019-05-16T07:30:30.288Z,1732
2019-05-16T07:31:32.319Z,1692
2019-05-16T07:32:30.162Z,1852
2019-05-16T07:33:30.934Z,1764
2019-05-16T07:34:30.957Z,1936
2019-05-16T07:35:30.745Z,1852
2019-05-16T07:36:31.115Z,1824
2019-05-16T07:37:43.233Z,1644
2019-05-16T07:38:30.650Z,1396
2019-05-16T07:39:30.622Z,1384
2019-05-16T07:40:35.617Z,1396
2019-05-16T07:41:30.872Z,1556
2019-05-16T07:42:30.712Z,1476
2019-05-16T07:43:30.781Z,1700
2019-05-16T07:44:30.900Z,1844
2019-05-16T07:46:00.558Z,1956
2019-05-16T07:46:31.344Z,2060
2019-05-16T07:47:30.883Z,2196
2019-05-16T07:48:31.533Z,2048
2019-05-16T07:49:43.436Z,2160
2019-05-16T07:50:43.453Z,2604
2019-05-16T07:51:30.983Z,2380
2019-05-16T07:52:30.939Z,2508
2019-05-16T07:53:30.412Z,2404
2019-05-16T07:54:30.774Z,2104
2019-05-16T07:55:30.805Z,2000
2019-05-16T07:56:30.911Z,1924
2019-05-16T07:57:30.711Z,1716
2019-05-16T07:58:31.221Z,1816
2019-05-16T07:59:29.899Z,1720
2019-05-16T08:01:08.761Z,1632
2019-05-16T08:01:30.647Z,1708
2019-05-16T08:02:31.048Z,1812
2019-05-16T08:03:30.326Z,2092
2019-05-16T08:04:30.345Z,2140
2019-05-16T08:05:29.829Z,2424
2019-05-16T08:06:30.934Z,2372
2019-05-16T08:07:30.700Z,2312
2019-05-16T08:08:34.047Z,2284
2019-05-16T08:09:43.841Z,2032
2019-05-16T08:10:53.543Z,1800
2019-05-16T08:11:32.894Z,1824
2019-05-16T08:12:47.801Z,1832
2019-05-16T08:13:30.771Z,1788
2019-05-16T08:15:55.229Z,1728
2019-05-16T08:16:43.177Z,1688
2019-05-16T08:17:46.716Z,1860
2019-05-16T08:18:50.344Z,2004
2019-05-16T08:19:42.438Z,1972
2019-05-16T08:20:43.957Z,1996
2019-05-16T08:21:43.417Z,2276
2019-05-16T08:22:43.869Z,2148
2019-05-16T08:26:47.651Z,1452
2019-05-16T08:28:01.120Z,1440
2019-05-16T08:29:01.945Z,1628
2019-05-16T08:31:14.256Z,1928
2019-05-16T08:32:15.710Z,1996
2019-05-16T08:33:16.040Z,2100
2019-05-16T08:34:26.564Z,2024
2019-05-16T08:36:40.995Z,2076
2019-05-16T08:38:06.510Z,1716
2019-05-16T08:38:42.873Z,1812
2019-05-16T08:39:41.270Z,1892
2019-05-16T08:41:17.211Z,2024
2019-05-16T08:41:42.337Z,2148
2019-05-16T08:42:43.927Z,2428
2019-05-16T08:43:41.368Z,2148
2019-05-16T08:45:41.717Z,2120
2019-05-16T08:46:42.303Z,2148
2019-05-16T08:47:42.301Z,2092
2019-05-16T08:48:42.238Z,2020
2019-05-16T08:50:24.076Z,1936
2019-05-16T08:51:26.940Z,2136
2019-05-16T08:53:45.595Z,2300
2019-05-16T08:54:43.689Z,2192
2019-05-16T08:55:45.669Z,2148
2019-05-16T08:56:46.526Z,2188
2019-05-16T08:57:43.432Z,2108
2019-05-16T08:59:01.777Z,2448
2019-05-16T09:02:15.334Z,2524
2019-05-16T09:03:14.618Z,2888
2019-05-16T09:04:14.319Z,2632
2019-05-16T09:05:22.279Z,2472
2019-05-16T09:06:14.130Z,2424
2019-05-16T09:07:14.972Z,1932
2019-05-16T09:08:10.992Z,1812
2019-05-16T09:11:48.665Z,2068
2019-05-16T09:12:02.223Z,2124
2019-05-16T09:13:02.082Z,2056
2019-05-16T09:14:02.117Z,2084
2019-05-16T09:15:01.878Z,2128
2019-05-16T09:16:01.903Z,2472
2019-05-16T09:17:02.783Z,2444
2019-05-16T09:18:02.856Z,2556
2019-05-16T09:19:02.317Z,2316
2019-05-16T09:20:02.446Z,2188
2019-05-16T09:21:14.378Z,2340
2019-05-16T09:22:02.475Z,2728
2019-05-16T09:24:02.529Z,3140
2019-05-16T09:25:03.733Z,2772
2019-05-16T09:26:03.156Z,2520
2019-05-16T09:27:21.056Z,2444
2019-05-16T09:29:01.916Z,2304
2019-05-16T09:30:01.627Z,2252
2019-05-16T09:31:17.940Z,2064
2019-05-16T09:32:27.846Z,1996
2019-05-16T09:33:01.236Z,2264
2019-05-16T09:34:01.571Z,3408
2019-05-16T09:35:02.243Z,3840
2019-05-16T09:36:02.249Z,3860
2019-05-16T09:38:02.045Z,3012
2019-05-16T09:39:16.834Z,2972
2019-05-16T09:40:02.163Z,3208
2019-05-16T09:41:16.933Z,3500
2019-05-16T09:43:17.562Z,3048
2019-05-16T09:44:18.622Z,2960
2019-05-16T09:46:12.789Z,3296
2019-05-16T09:47:01.850Z,3308
2019-05-16T09:48:18.771Z,3332
2019-05-16T09:49:33.869Z,3140
2019-05-16T09:50:02.699Z,3192
2019-05-16T09:51:02.592Z,3260
2019-05-16T09:53:01.384Z,3572
2019-05-16T09:55:02.635Z,3064
2019-05-16T09:56:17.077Z,2936
2019-05-16T09:57:02.027Z,2948
2019-05-16T09:58:17.693Z,2840
2019-05-16T09:59:02.283Z,2744
2019-05-16T10:00:02.043Z,2224
2019-05-16T10:01:02.407Z,1996
2019-05-16T10:02:02.041Z,2300
2019-05-16T10:03:02.274Z,2372
2019-05-16T10:04:00.462Z,2168
2019-05-16T10:05:02.913Z,1856
2019-05-16T10:06:02.097Z,1844
2019-05-16T10:07:02.088Z,2400
2019-05-16T10:08:02.248Z,3180
2019-05-16T10:09:01.775Z,3592
2019-05-16T10:10:16.890Z,4076
2019-05-16T10:11:01.976Z,4960
2019-05-16T10:12:21.126Z,5784
2019-05-16T10:13:00.134Z,5372
2019-05-16T10:14:00.664Z,5396
2019-05-16T10:15:02.223Z,5484
2019-05-16T10:16:00.693Z,4816
2019-05-16T10:17:02.673Z,4916
2019-05-16T10:18:02.338Z,6220
2019-05-16T10:19:01.624Z,6308
2019-05-16T10:20:07.599Z,5756
2019-05-16T10:22:07.087Z,4828
2019-05-16T10:24:01.282Z,5640
2019-05-16T10:25:02.139Z,6600
2019-05-16T10:26:01.630Z,6588
2019-05-16T10:27:01.995Z,6304
2019-05-16T10:28:00.161Z,6088
2019-05-16T10:29:02.875Z,6620
2019-05-16T10:30:17.528Z,6796
2019-05-16T10:31:03.927Z,6116
2019-05-16T10:32:01.690Z,5340
2019-05-16T10:33:18.740Z,4460
2019-05-16T10:34:17.331Z,4456
2019-05-16T10:36:02.854Z,5176
2019-05-16T10:37:02.177Z,5092
2019-05-16T10:39:07.282Z,5068
2019-05-16T10:40:07.123Z,5300
2019-05-16T10:41:03.734Z,6068
2019-05-16T10:42:02.313Z,5916
2019-05-16T10:43:02.468Z,5428
2019-05-16T10:45:02.548Z,5552
2019-05-16T10:46:17.633Z,6112
2019-05-16T10:47:01.270Z,5808
2019-05-16T10:48:00.791Z,5620
2019-05-16T10:49:02.608Z,5888
2019-05-16T10:50:03.529Z,5684
2019-05-16T10:51:03.945Z,5372
2019-05-16T10:52:02.550Z,5044
2019-05-16T10:54:14.105Z,5188
2019-05-16T10:55:27.728Z,6088
2019-05-16T10:56:26.015Z,6304
2019-05-16T10:57:42.880Z,5300
2019-05-16T11:00:04.533Z,5408
2019-05-16T11:01:31.242Z,5712
2019-05-16T11:01:43.777Z,5720
2019-05-16T11:02:44.360Z,5224
2019-05-16T11:05:33.336Z,4888
2019-05-16T11:06:06.509Z,4948
2019-05-16T11:06:49.051Z,4980
2019-05-16T11:08:49.063Z,4540
2019-05-16T11:10:50.032Z,4460
2019-05-16T11:13:12.733Z,4832
2019-05-16T11:13:51.120Z,5164
2019-05-16T11:14:50.135Z,5360
2019-05-16T11:15:47.330Z,5224
2019-05-16T11:16:49.823Z,5152
2019-05-16T11:17:47.370Z,5220
2019-05-16T11:18:47.393Z,5272
2019-05-16T11:19:49.002Z,5512
2019-05-16T11:20:51.979Z,5728
2019-05-16T11:21:49.286Z,5576
2019-05-16T11:22:50.084Z,5748
2019-05-16T11:23:49.568Z,6048
2019-05-16T11:24:49.595Z,6092
2019-05-16T11:25:49.596Z,5924
2019-05-16T11:26:49.880Z,6048
2019-05-16T11:27:49.353Z,5876
2019-05-16T11:28:51.118Z,5776
2019-05-16T11:29:49.738Z,5000
2019-05-16T11:31:10.214Z,5424
2019-05-16T11:31:49.268Z,5396
2019-05-16T11:32:49.362Z,5140
2019-05-16T11:33:50.055Z,5016
2019-05-16T11:34:50.280Z,5288
2019-05-16T11:37:02.413Z,5636
2019-05-16T11:37:49.674Z,5816
2019-05-16T11:38:50.021Z,5804
2019-05-16T11:40:02.460Z,5432
2019-05-16T11:40:50.015Z,5512
2019-05-16T11:41:50.019Z,5852
2019-05-16T11:43:06.447Z,6356
2019-05-16T11:43:49.818Z,6476
2019-05-16T11:44:50.285Z,6464
2019-05-16T11:47:02.610Z,8664
2019-05-16T11:47:49.520Z,9356
2019-05-16T11:48:48.847Z,8428
2019-05-16T11:49:50.063Z,7892
2019-05-16T11:50:50.588Z,8800
2019-05-16T11:51:49.757Z,8396
2019-05-16T11:52:50.280Z,8016
2019-05-16T11:53:50.143Z,8192
2019-05-16T11:54:49.365Z,8144
2019-05-16T11:56:20.879Z,8084
2019-05-16T11:57:02.557Z,8824
2019-05-16T11:57:50.099Z,7552
2019-05-16T11:59:02.592Z,6364
2019-05-16T12:00:02.860Z,6052
2019-05-16T12:00:50.734Z,5976
2019-05-16T12:01:49.951Z,5788
2019-05-16T12:03:02.684Z,5932
2019-05-16T12:03:49.281Z,6612
2019-05-16T12:04:49.663Z,6224
2019-05-16T12:05:50.711Z,6056
2019-05-16T12:07:56.835Z,6372
2019-05-16T12:08:49.220Z,6300
2019-05-16T12:10:00.489Z,5868
2019-05-16T12:10:49.730Z,5684
2019-05-16T12:11:48.436Z,5488
2019-05-16T12:12:48.489Z,5064
2019-05-16T12:13:50.101Z,4932
2019-05-16T12:14:48.499Z,4924
2019-05-16T12:15:48.524Z,5068
2019-05-16T12:16:49.766Z,5040
2019-05-16T12:18:04.900Z,4876
2019-05-16T12:19:03.241Z,4612
2019-05-16T12:20:08.422Z,4656
2019-05-16T12:21:03.290Z,4840
2019-05-16T12:21:48.678Z,5124
2019-05-16T12:22:48.719Z,5244
2019-05-16T12:23:49.517Z,5144
2019-05-16T12:24:50.229Z,4644
2019-05-16T12:26:03.388Z,4444
2019-05-16T12:27:50.537Z,4016
2019-05-16T12:28:48.787Z,4132
2019-05-16T12:29:56.115Z,4188
2019-05-16T12:32:09.768Z,4540
2019-05-16T12:32:49.515Z,4628
2019-05-16T12:34:51.044Z,5212
2019-05-16T12:35:49.905Z,5276
2019-05-16T12:36:49.754Z,5084
2019-05-16T12:37:51.931Z,4632
2019-05-16T12:38:51.467Z,4116
2019-05-16T12:39:51.800Z,3892
2019-05-16T12:40:52.491Z,3860
2019-05-16T12:41:51.689Z,3896
2019-05-16T12:42:49.700Z,3664
2019-05-16T12:44:00.362Z,3728
2019-05-16T12:44:51.580Z,3776
2019-05-16T12:45:51.987Z,3572
2019-05-16T12:47:03.844Z,3240
2019-05-16T12:47:51.919Z,3112
2019-05-16T12:48:52.100Z,2956
2019-05-16T12:49:49.688Z,2844
2019-05-16T12:50:52.704Z,3112
2019-05-16T12:51:51.331Z,3664
2019-05-16T12:52:52.061Z,3980
2019-05-16T12:53:50.239Z,3872
2019-05-16T12:54:52.235Z,3452
2019-05-16T12:55:50.136Z,3172
2019-05-16T12:56:50.748Z,3116
2019-05-16T12:57:56.068Z,3164
2019-05-16T12:58:53.402Z,3368
2019-05-16T13:00:18.940Z,3516
2019-05-16T13:01:00.364Z,3436
2019-05-16T13:01:50.637Z,3336
2019-05-16T13:02:52.025Z,3224
2019-05-16T13:04:04.180Z,3244
2019-05-16T13:04:51.849Z,3140
2019-05-16T13:06:04.200Z,2976
2019-05-16T13:06:51.831Z,3212
2019-05-16T13:07:50.183Z,3328
2019-05-16T13:09:06.798Z,3636
2019-05-16T13:10:51.888Z,3816
2019-05-16T13:12:06.707Z,3848
2019-05-16T13:14:16.879Z,4264
2019-05-16T13:14:49.847Z,3900
2019-05-16T13:15:52.227Z,3380
2019-05-16T13:17:52.234Z,3064
2019-05-16T13:18:52.239Z,3032
2019-05-16T13:19:53.184Z,2976
2019-05-16T13:20:51.597Z,2764
2019-05-16T13:22:07.129Z,2780
2019-05-16T13:22:52.265Z,2724
2019-05-16T13:24:06.868Z,2668
2019-05-16T13:24:52.776Z,2660
2019-05-16T13:26:07.587Z,2716
2019-05-16T13:26:52.427Z,2860
2019-05-16T13:27:52.334Z,2804
2019-05-16T13:28:52.518Z,2692
2019-05-16T13:29:52.538Z,2604
2019-05-16T13:30:51.748Z,2612
2019-05-16T13:32:07.388Z,2408
2019-05-16T13:32:50.104Z,2480
2019-05-16T13:33:50.127Z,2676
2019-05-16T13:35:52.007Z,2760
2019-05-16T13:36:52.333Z,2984
2019-05-16T13:38:07.591Z,3088
2019-05-16T13:38:53.024Z,3168
2019-05-16T13:39:52.493Z,3160
2019-05-16T13:40:50.249Z,3168
2019-05-16T13:41:50.269Z,3228
2019-05-16T13:42:52.655Z,3076
2019-05-16T13:43:50.303Z,2980
2019-05-16T13:45:52.073Z,3080
2019-05-16T13:47:07.456Z,3096
2019-05-16T13:47:53.779Z,3384
2019-05-16T13:49:07.199Z,3448
2019-05-16T13:49:50.436Z,3332
2019-05-16T13:51:06.316Z,3188
2019-05-16T13:52:52.945Z,3220
2019-05-16T13:54:07.017Z,3028
2019-05-16T13:54:50.531Z,3348
2019-05-16T13:55:50.568Z,3508
2019-05-16T13:57:50.605Z,3216
2019-05-16T13:58:51.874Z,3104
2019-05-16T13:59:50.651Z,3164
2019-05-16T14:00:52.905Z,3140
2019-05-16T14:02:50.700Z,2876
2019-05-16T14:04:50.759Z,2556
2019-05-16T14:05:52.657Z,2660
2019-05-16T14:06:55.401Z,2812
2019-05-16T14:07:52.858Z,2616
2019-05-16T14:09:07.322Z,2488
2019-05-16T14:09:52.026Z,2352
2019-05-16T14:10:53.931Z,2616
2019-05-16T14:11:53.492Z,2704
2019-05-16T14:12:54.552Z,2772
2019-05-16T14:14:52.710Z,2660
2019-05-16T14:15:51.912Z,2480
2019-05-16T14:16:51.737Z,2280
2019-05-16T14:18:07.618Z,2188
2019-05-16T14:18:51.685Z,2224
2019-05-16T14:19:52.787Z,2184
2019-05-16T14:20:53.431Z,2196
2019-05-16T14:22:07.626Z,2352
2019-05-16T14:22:51.111Z,2492
2019-05-16T14:23:59.352Z,2768
2019-05-16T14:24:53.100Z,2884
2019-05-16T14:25:57.592Z,2888
2019-05-16T14:26:53.593Z,2832
2019-05-16T14:27:52.342Z,2900
2019-05-16T14:28:53.978Z,3244
2019-05-16T14:29:52.499Z,3452
2019-05-16T14:30:53.610Z,3204
2019-05-16T14:32:09.978Z,2800
2019-05-16T14:33:13.680Z,2564
2019-05-16T14:33:52.229Z,2428
2019-05-16T14:35:01.431Z,2352
2019-05-16T14:37:09.137Z,2560
2019-05-16T14:38:01.042Z,2532
2019-05-16T14:38:53.899Z,2408
2019-05-16T14:39:56.643Z,2188
2019-05-16T14:41:07.994Z,2180
2019-05-16T14:41:56.441Z,2208
2019-05-16T14:43:10.850Z,2232
2019-05-16T14:45:19.289Z,2084
2019-05-16T14:46:09.642Z,1976
2019-05-16T14:47:09.458Z,1856
2019-05-16T14:47:54.589Z,1712
2019-05-16T14:48:51.641Z,1660
2019-05-16T14:50:12.750Z,1668
2019-05-16T14:51:08.940Z,1696
2019-05-16T14:51:54.706Z,1800
2019-05-16T14:52:56.585Z,1784
2019-05-16T14:53:53.925Z,1728
2019-05-16T14:54:54.007Z,1768
2019-05-16T14:55:57.433Z,1748
2019-05-16T14:57:56.567Z,1724
2019-05-16T14:58:57.607Z,1712
2019-05-16T14:59:56.417Z,1632
2019-05-16T15:00:57.453Z,1584
2019-05-16T15:01:54.492Z,1548
2019-05-16T15:02:56.618Z,1524
2019-05-16T15:03:56.447Z,1504
2019-05-16T15:04:59.328Z,1612